Thunder radar more information blitzortung!


avis per Pluja more information rain snow radar


Visita la nostra xarxa de llocs de meteo:

Template documentation
and downloads

And another site



Rain From: 15-11-2018 00:00 Until: 23:59 warning for: Rain Level: Yellow info button

Pagina Historial Weather Underground text

Diari Resum February 1, 2018 Unitats:  Tant    Imperial   Mètric
« Previous Dia
SegĂźent Dia »
Diari Setmana Mensual Anual Personalitzada
  Maxima: Minima: Media:
Temperatura: TemperatureC °F /  -17.8 °C 3.0 °F /  -16.1 °C 5.8 °F /  -14.6 °C
Punt de rosada: DewpointC °F /  -17.8 °C -0.4 °F /  -18 °C 2.1 °F /  -16.6 °C
Humitat: Humidity % 71 % 77 %
Wind Speed: WindSpeedKMH mph /  0 km/h - 4.7 mph /  7.6 km/h
RĂ fegues de vent: WindSpeedGustKMH mph /  0 km/h - -
Vent:- - East
Pression baro: PressurehPa in /  0 hPa 1006.0 in /  34063.2 hPa -
Precipitacions: 1.3 in /  33.02 mm    
Historical Graphs
 
 
Dades de taula per February 1, 2018
Temps Temperatura Punt de rosada Pression baro Vent Wind Speed RĂ fegues de vent Humitat Rainfall Rate (Hourly)
TemperatureC °F /  -17.8 °C DewpointC °F /  -17.8 °C PressurehPa in /  0 hPa Calm     Humidity % HourlyPrecipMM in /  0 mm
00:01 7.7 °F /  -13.5 °C 3.3 °F /  -15.9 °C 1017.8 in /  34462.7 hPa WSW 7.4 mph /  11.9 km/h 7.4 mph /  11.9 km/h 74 % 0.0 in /  0 mm
00:05 3.0 °F /  -16.1 °C -0.4 °F /  -18 °C 1011.7 in /  34256.2 hPa Calm   3.2 mph /  5.1 km/h 78 % 0.0 in /  0 mm
00:15 3.1 °F /  -16.1 °C -0.2 °F /  -17.9 °C 1011.7 in /  34256.2 hPa NNW 1.6 mph /  2.6 km/h 1.6 mph /  2.6 km/h 79 % 0.0 in /  0 mm
00:25 3.3 °F /  -15.9 °C -0.2 °F /  -17.9 °C 1010.7 in /  34222.3 hPa Calm   1.6 mph /  2.6 km/h 78 % 0.0 in /  0 mm
00:35 3.2 °F /  -16 °C -0.3 °F /  -17.9 °C 1011.7 in /  34256.2 hPa Calm     78 % 0.0 in /  0 mm
00:45 3.2 °F /  -16 °C -0.3 °F /  -17.9 °C 1011.7 in /  34256.2 hPa Calm   1.6 mph /  2.6 km/h 78 % 0.0 in /  0 mm
00:55 3.3 °F /  -15.9 °C 0.0 °F /  -17.8 °C 1011.7 in /  34256.2 hPa NNW 1.6 mph /  2.6 km/h 3.2 mph /  5.1 km/h 79 % 0.0 in /  0 mm
01:05 3.3 °F /  -15.9 °C 0.0 °F /  -17.8 °C 1011.7 in /  34256.2 hPa NNE 1.6 mph /  2.6 km/h 3.2 mph /  5.1 km/h 79 % 0.0 in /  0 mm
01:15 3.1 °F /  -16.1 °C -0.4 °F /  -18 °C 1011.7 in /  34256.2 hPa Calm   4.8 mph /  7.7 km/h 78 % 0.0 in /  0 mm
01:25 3.2 °F /  -16 °C -0.3 °F /  -17.9 °C 1010.7 in /  34222.3 hPa SW 1.6 mph /  2.6 km/h 3.2 mph /  5.1 km/h 78 % 0.0 in /  0 mm
01:35 3.1 °F /  -16.1 °C -0.4 °F /  -18 °C 1011.7 in /  34256.2 hPa WSW 1.6 mph /  2.6 km/h 1.6 mph /  2.6 km/h 78 % 0.0 in /  0 mm
01:45 3.2 °F /  -16 °C -0.1 °F /  -17.8 °C 1011.7 in /  34256.2 hPa WSW 1.6 mph /  2.6 km/h 1.6 mph /  2.6 km/h 79 % 0.0 in /  0 mm
02:05 3.2 °F /  -16 °C -0.1 °F /  -17.8 °C 1010.7 in /  34222.3 hPa Calm     79 % 0.0 in /  0 mm
02:15 3.6 °F /  -15.8 °C 0.3 °F /  -17.6 °C 1010.7 in /  34222.3 hPa NNW 1.6 mph /  2.6 km/h 3.2 mph /  5.1 km/h 79 % 0.0 in /  0 mm
02:25 3.3 °F /  -15.9 °C -0.2 °F /  -17.9 °C 1010.7 in /  34222.3 hPa West 1.6 mph /  2.6 km/h 3.2 mph /  5.1 km/h 78 % 0.0 in /  0 mm
02:35 3.4 °F /  -15.9 °C -0.1 °F /  -17.8 °C 1010.7 in /  34222.3 hPa Calm   3.2 mph /  5.1 km/h 78 % 0.0 in /  0 mm
02:45 3.7 °F /  -15.7 °C 0.4 °F /  -17.6 °C 1010.7 in /  34222.3 hPa Calm     79 % 0.0 in /  0 mm
02:55 3.9 °F /  -15.6 °C 0.6 °F /  -17.4 °C 1010.0 in /  34198.6 hPa Calm   1.6 mph /  2.6 km/h 79 % 0.0 in /  0 mm
03:05 4.2 °F /  -15.4 °C 0.9 °F /  -17.3 °C 1010.0 in /  34198.6 hPa WSW 1.6 mph /  2.6 km/h 3.2 mph /  5.1 km/h 79 % 0.0 in /  0 mm
09:06 4.1 °F /  -15.5 °C 0.8 °F /  -17.3 °C 1010.0 in /  34198.6 hPa SW 3.7 mph /  6 km/h   79 % 0.0 in /  0 mm
09:11 4.2 °F /  -15.4 °C 0.9 °F /  -17.3 °C 1010.0 in /  34198.6 hPa Calm     79 % 0.0 in /  0 mm
09:16 4.3 °F /  -15.4 °C 1.0 °F /  -17.2 °C 1010.0 in /  34198.6 hPa SW 1.9 mph /  3.1 km/h   79 % 0.0 in /  0 mm
09:21 4.3 °F /  -15.4 °C 1.0 °F /  -17.2 °C 1010.0 in /  34198.6 hPa SW 1.9 mph /  3.1 km/h   79 % 0.0 in /  0 mm
09:26 4.3 °F /  -15.4 °C 1.0 °F /  -17.2 °C 1010.0 in /  34198.6 hPa Calm     79 % 0.0 in /  0 mm
09:32 4.3 °F /  -15.4 °C 1.0 °F /  -17.2 °C 1010.0 in /  34198.6 hPa SSW 1.9 mph /  3.1 km/h   79 % 0.0 in /  0 mm
09:37 4.4 °F /  -15.3 °C 1.1 °F /  -17.2 °C 1010.0 in /  34198.6 hPa SW 2.6 mph /  4.2 km/h 2.6 mph /  4.2 km/h 79 % 0.0 in /  0 mm
09:42 4.4 °F /  -15.3 °C 1.1 °F /  -17.2 °C 1010.0 in /  34198.6 hPa Calm     79 % 0.0 in /  0 mm
09:47 4.4 °F /  -15.3 °C 1.1 °F /  -17.2 °C 1010.0 in /  34198.6 hPa SW 3.7 mph /  6 km/h 3.7 mph /  6 km/h 79 % 0.0 in /  0 mm
09:52 4.4 °F /  -15.3 °C 1.1 °F /  -17.2 °C 1010.0 in /  34198.6 hPa Calm     79 % 0.0 in /  0 mm
09:57 4.5 °F /  -15.3 °C 1.2 °F /  -17.1 °C 1010.0 in /  34198.6 hPa Calm     79 % 0.0 in /  0 mm
10:02 4.5 °F /  -15.3 °C 1.2 °F /  -17.1 °C 1010.0 in /  34198.6 hPa SW 1.9 mph /  3.1 km/h 2.3 mph /  3.7 km/h 79 % 0.0 in /  0 mm
10:07 4.6 °F /  -15.2 °C 1.3 °F /  -17.1 °C 1010.0 in /  34198.6 hPa Calm     79 % 0.0 in /  0 mm
10:12 4.7 °F /  -15.2 °C 1.4 °F /  -17 °C 1010.0 in /  34198.6 hPa Calm     79 % 0.0 in /  0 mm
10:17 4.8 °F /  -15.1 °C 1.4 °F /  -17 °C 1010.0 in /  34198.6 hPa Calm     79 % 0.0 in /  0 mm
10:22 5.0 °F /  -15 °C 1.7 °F /  -16.8 °C 1010.0 in /  34198.6 hPa Calm     79 % 0.0 in /  0 mm
10:27 5.1 °F /  -14.9 °C 1.8 °F /  -16.8 °C 1010.0 in /  34198.6 hPa NNE 3.7 mph /  6 km/h 3.7 mph /  6 km/h 79 % 0.0 in /  0 mm
10:32 5.2 °F /  -14.9 °C 1.8 °F /  -16.8 °C 1010.0 in /  34198.6 hPa WNW 2.6 mph /  4.2 km/h 2.6 mph /  4.2 km/h 79 % 0.0 in /  0 mm
10:37 5.4 °F /  -14.8 °C 1.9 °F /  -16.7 °C 1010.0 in /  34198.6 hPa NNW 3.7 mph /  6 km/h 3.7 mph /  6 km/h 78 % 0.0 in /  0 mm
10:42 5.6 °F /  -14.7 °C 2.1 °F /  -16.6 °C 1010.0 in /  34198.6 hPa SSE 4.2 mph /  6.8 km/h 4.2 mph /  6.8 km/h 78 % 0.0 in /  0 mm
10:47 5.8 °F /  -14.6 °C 2.3 °F /  -16.5 °C 1010.0 in /  34198.6 hPa NE 5.6 mph /  9 km/h 5.6 mph /  9 km/h 78 % 0.0 in /  0 mm
10:52 5.9 °F /  -14.5 °C 2.2 °F /  -16.6 °C 1010.0 in /  34198.6 hPa North 5.0 mph /  8 km/h 5.0 mph /  8 km/h 77 % 0.0 in /  0 mm
10:57 6.0 °F /  -14.4 °C 2.3 °F /  -16.5 °C 1010.0 in /  34198.6 hPa NW 3.7 mph /  6 km/h 3.7 mph /  6 km/h 77 % 0.0 in /  0 mm
11:02 6.0 °F /  -14.4 °C 2.1 °F /  -16.6 °C 1010.0 in /  34198.6 hPa NNE 4.2 mph /  6.8 km/h 4.2 mph /  6.8 km/h 76 % 0.0 in /  0 mm
11:07 6.0 °F /  -14.4 °C 2.1 °F /  -16.6 °C 1010.0 in /  34198.6 hPa WNW 3.7 mph /  6 km/h 3.7 mph /  6 km/h 76 % 0.0 in /  0 mm
11:12 5.9 °F /  -14.5 °C 1.8 °F /  -16.8 °C 1010.0 in /  34198.6 hPa NNE 9.3 mph /  15 km/h 9.3 mph /  15 km/h 75 % 0.0 in /  0 mm
11:17 5.9 °F /  -14.5 °C 1.8 °F /  -16.8 °C 1010.0 in /  34198.6 hPa NNE 4.7 mph /  7.6 km/h 5.8 mph /  9.3 km/h 75 % 0.0 in /  0 mm
11:22 5.9 °F /  -14.5 °C 1.6 °F /  -16.9 °C 1010.0 in /  34198.6 hPa NNE 9.3 mph /  15 km/h 9.3 mph /  15 km/h 74 % 0.0 in /  0 mm
11:27 6.0 °F /  -14.4 °C 1.7 °F /  -16.8 °C 1010.0 in /  34198.6 hPa NNE 7.4 mph /  11.9 km/h 7.4 mph /  11.9 km/h 74 % 0.0 in /  0 mm
11:32 6.0 °F /  -14.4 °C 1.7 °F /  -16.8 °C 1010.0 in /  34198.6 hPa NNE 9.3 mph /  15 km/h 9.3 mph /  15 km/h 74 % 0.0 in /  0 mm
11:37 6.1 °F /  -14.4 °C 1.8 °F /  -16.8 °C 1010.0 in /  34198.6 hPa NNE 11.1 mph /  17.9 km/h 11.1 mph /  17.9 km/h 74 % 0.0 in /  0 mm
11:42 6.0 °F /  -14.4 °C 1.5 °F /  -16.9 °C 1010.0 in /  34198.6 hPa NNE 9.7 mph /  15.6 km/h 9.7 mph /  15.6 km/h 73 % 0.0 in /  0 mm
11:47 6.0 °F /  -14.4 °C 1.5 °F /  -16.9 °C 1010.0 in /  34198.6 hPa NNE 11.9 mph /  19.2 km/h 11.9 mph /  19.2 km/h 73 % 0.0 in /  0 mm
11:52 6.1 °F /  -14.4 °C 1.6 °F /  -16.9 °C 1010.0 in /  34198.6 hPa NE 7.4 mph /  11.9 km/h 7.4 mph /  11.9 km/h 73 % 0.0 in /  0 mm
11:57 6.3 °F /  -14.3 °C 1.8 °F /  -16.8 °C 1010.0 in /  34198.6 hPa North 9.3 mph /  15 km/h 9.3 mph /  15 km/h 73 % 0.0 in /  0 mm
12:02 6.4 °F /  -14.2 °C 1.9 °F /  -16.7 °C 1010.0 in /  34198.6 hPa NNE 11.1 mph /  17.9 km/h 11.1 mph /  17.9 km/h 73 % 0.0 in /  0 mm
12:07 6.5 °F /  -14.2 °C 2.0 °F /  -16.7 °C 1010.0 in /  34198.6 hPa North 9.3 mph /  15 km/h 9.3 mph /  15 km/h 73 % 0.0 in /  0 mm
12:12 6.6 °F /  -14.1 °C 1.9 °F /  -16.7 °C 1010.0 in /  34198.6 hPa NNE 9.3 mph /  15 km/h 9.3 mph /  15 km/h 72 % 0.0 in /  0 mm
12:17 6.7 °F /  -14.1 °C 2.0 °F /  -16.7 °C 1009.0 in /  34164.7 hPa NNE 9.3 mph /  15 km/h 9.3 mph /  15 km/h 72 % 0.0 in /  0 mm
12:22 6.8 °F /  -14 °C 2.1 °F /  -16.6 °C 1009.0 in /  34164.7 hPa NNE 10.3 mph /  16.6 km/h 10.3 mph /  16.6 km/h 72 % 0.0 in /  0 mm
12:27 6.9 °F /  -13.9 °C 2.2 °F /  -16.6 °C 1009.0 in /  34164.7 hPa NE 13.0 mph /  20.9 km/h 13.0 mph /  20.9 km/h 72 % 0.0 in /  0 mm
12:32 7.0 °F /  -13.9 °C 2.1 °F /  -16.6 °C 1008.0 in /  34130.9 hPa ENE 9.3 mph /  15 km/h 9.3 mph /  15 km/h 71 % 0.0 in /  0 mm
12:37 7.1 °F /  -13.8 °C 2.2 °F /  -16.6 °C 1008.0 in /  34130.9 hPa NNE 5.3 mph /  8.5 km/h 5.3 mph /  8.5 km/h 71 % 0.0 in /  0 mm
12:42 7.1 °F /  -13.8 °C 2.2 °F /  -16.6 °C 1008.0 in /  34130.9 hPa NNE 9.3 mph /  15 km/h 9.3 mph /  15 km/h 71 % 0.0 in /  0 mm
12:47 7.1 °F /  -13.8 °C 2.2 °F /  -16.6 °C 1008.0 in /  34130.9 hPa ENE 11.1 mph /  17.9 km/h 11.1 mph /  17.9 km/h 71 % 0.0 in /  0 mm
12:52 7.1 °F /  -13.8 °C 2.4 °F /  -16.4 °C 1008.0 in /  34130.9 hPa ENE 4.2 mph /  6.8 km/h 4.2 mph /  6.8 km/h 72 % 0.0 in /  0 mm
12:57 7.1 °F /  -13.8 °C 2.4 °F /  -16.4 °C 1008.0 in /  34130.9 hPa NE 5.0 mph /  8 km/h 5.0 mph /  8 km/h 72 % 0.0 in /  0 mm
13:02 7.1 °F /  -13.8 °C 2.4 °F /  -16.4 °C 1008.0 in /  34130.9 hPa NNE 5.0 mph /  8 km/h 5.0 mph /  8 km/h 72 % 0.0 in /  0 mm
13:07 7.0 °F /  -13.9 °C 2.3 °F /  -16.5 °C 1008.0 in /  34130.9 hPa North 7.4 mph /  11.9 km/h 7.4 mph /  11.9 km/h 72 % 0.0 in /  0 mm
13:12 7.0 °F /  -13.9 °C 2.5 °F /  -16.4 °C 1008.0 in /  34130.9 hPa ENE 7.4 mph /  11.9 km/h 7.4 mph /  11.9 km/h 73 % 0.0 in /  0 mm
13:17 6.9 °F /  -13.9 °C 2.6 °F /  -16.3 °C 1008.0 in /  34130.9 hPa NNE 3.7 mph /  6 km/h 3.7 mph /  6 km/h 74 % 0.0 in /  0 mm
13:22 6.9 °F /  -13.9 °C 2.6 °F /  -16.3 °C 1008.0 in /  34130.9 hPa NNE 4.2 mph /  6.8 km/h 4.2 mph /  6.8 km/h 74 % 0.0 in /  0 mm
13:27 6.8 °F /  -14 °C 2.7 °F /  -16.3 °C 1008.0 in /  34130.9 hPa NNE 5.0 mph /  8 km/h 5.0 mph /  8 km/h 75 % 0.0 in /  0 mm
13:32 6.7 °F /  -14.1 °C 2.6 °F /  -16.3 °C 1008.0 in /  34130.9 hPa NNE 3.7 mph /  6 km/h 3.7 mph /  6 km/h 75 % 0.0 in /  0 mm
13:37 6.7 °F /  -14.1 °C 2.8 °F /  -16.2 °C 1008.0 in /  34130.9 hPa NNE 3.7 mph /  6 km/h 3.7 mph /  6 km/h 76 % 0.0 in /  0 mm
13:42 6.7 °F /  -14.1 °C 2.8 °F /  -16.2 °C 1008.0 in /  34130.9 hPa NW 4.2 mph /  6.8 km/h   76 % 0.0 in /  0 mm
13:47 6.7 °F /  -14.1 °C 2.8 °F /  -16.2 °C 1008.0 in /  34130.9 hPa NNE 3.9 mph /  6.3 km/h 3.9 mph /  6.3 km/h 76 % 0.0 in /  0 mm
13:52 6.6 °F /  -14.1 °C 2.7 °F /  -16.3 °C 1008.0 in /  34130.9 hPa NE 4.2 mph /  6.8 km/h 4.2 mph /  6.8 km/h 76 % 0.0 in /  0 mm
13:57 6.5 °F /  -14.2 °C 2.6 °F /  -16.3 °C 1008.0 in /  34130.9 hPa NNE 7.4 mph /  11.9 km/h 7.4 mph /  11.9 km/h 76 % 0.0 in /  0 mm
14:02 6.5 °F /  -14.2 °C 2.8 °F /  -16.2 °C 1008.0 in /  34130.9 hPa NNE 5.6 mph /  9 km/h 5.6 mph /  9 km/h 77 % 0.0 in /  0 mm
14:07 6.5 °F /  -14.2 °C 2.8 °F /  -16.2 °C 1008.0 in /  34130.9 hPa East 5.6 mph /  9 km/h 5.6 mph /  9 km/h 77 % 0.0 in /  0 mm
14:12 6.5 °F /  -14.2 °C 2.8 °F /  -16.2 °C 1008.0 in /  34130.9 hPa East 5.6 mph /  9 km/h 5.6 mph /  9 km/h 77 % 0.0 in /  0 mm
14:17 6.5 °F /  -14.2 °C 2.8 °F /  -16.2 °C 1008.0 in /  34130.9 hPa ENE 7.4 mph /  11.9 km/h 7.4 mph /  11.9 km/h 77 % 0.0 in /  0 mm
14:22 6.5 °F /  -14.2 °C 2.8 °F /  -16.2 °C 1008.0 in /  34130.9 hPa NNE 6.1 mph /  9.8 km/h 6.1 mph /  9.8 km/h 77 % 0.0 in /  0 mm
14:27 6.5 °F /  -14.2 °C 2.8 °F /  -16.2 °C 1008.0 in /  34130.9 hPa NNE 3.7 mph /  6 km/h 3.7 mph /  6 km/h 77 % 0.0 in /  0 mm
14:32 6.5 °F /  -14.2 °C 2.8 °F /  -16.2 °C 1007.0 in /  34097 hPa North 3.7 mph /  6 km/h 4.7 mph /  7.6 km/h 77 % 0.0 in /  0 mm
14:37 6.5 °F /  -14.2 °C 2.8 °F /  -16.2 °C 1007.0 in /  34097 hPa NNE 7.4 mph /  11.9 km/h 7.4 mph /  11.9 km/h 77 % 0.0 in /  0 mm
14:42 6.5 °F /  -14.2 °C 2.9 °F /  -16.2 °C 1007.0 in /  34097 hPa NNE 3.9 mph /  6.3 km/h 3.9 mph /  6.3 km/h 78 % 0.0 in /  0 mm
14:47 6.6 °F /  -14.1 °C 3.1 °F /  -16.1 °C 1007.0 in /  34097 hPa ENE 5.6 mph /  9 km/h 5.6 mph /  9 km/h 78 % 0.0 in /  0 mm
14:52 6.6 °F /  -14.1 °C 3.1 °F /  -16.1 °C 1007.0 in /  34097 hPa NNW 7.4 mph /  11.9 km/h 7.4 mph /  11.9 km/h 78 % 0.0 in /  0 mm
14:57 6.6 °F /  -14.1 °C 3.1 °F /  -16.1 °C 1007.0 in /  34097 hPa NNE 7.4 mph /  11.9 km/h 7.4 mph /  11.9 km/h 78 % 0.0 in /  0 mm
15:02 6.6 °F /  -14.1 °C 3.1 °F /  -16.1 °C 1007.0 in /  34097 hPa WNW 3.7 mph /  6 km/h 4.2 mph /  6.8 km/h 78 % 0.0 in /  0 mm
15:07 6.6 °F /  -14.1 °C 3.1 °F /  -16.1 °C 1007.0 in /  34097 hPa ENE 3.9 mph /  6.3 km/h 3.9 mph /  6.3 km/h 78 % 0.0 in /  0 mm
15:12 6.7 °F /  -14.1 °C 3.1 °F /  -16.1 °C 1007.0 in /  34097 hPa NE 3.9 mph /  6.3 km/h 3.9 mph /  6.3 km/h 78 % 0.0 in /  0 mm
15:17 6.7 °F /  -14.1 °C 3.1 °F /  -16.1 °C 1007.0 in /  34097 hPa North 5.6 mph /  9 km/h 5.6 mph /  9 km/h 78 % 0.0 in /  0 mm
15:22 6.7 °F /  -14.1 °C 3.1 °F /  -16.1 °C 1007.0 in /  34097 hPa ESE 3.7 mph /  6 km/h 3.7 mph /  6 km/h 78 % 0.0 in /  0 mm
15:27 6.7 °F /  -14.1 °C 3.1 °F /  -16.1 °C 1007.0 in /  34097 hPa NNE 3.7 mph /  6 km/h 3.7 mph /  6 km/h 78 % 0.0 in /  0 mm
15:32 6.8 °F /  -14 °C 3.2 °F /  -16 °C 1007.0 in /  34097 hPa NNE 3.7 mph /  6 km/h 3.7 mph /  6 km/h 78 % 0.0 in /  0 mm
15:37 6.8 °F /  -14 °C 3.1 °F /  -16.1 °C 1007.0 in /  34097 hPa NNE 3.7 mph /  6 km/h 3.7 mph /  6 km/h 77 % 0.0 in /  0 mm
15:42 6.9 °F /  -13.9 °C 3.2 °F /  -16 °C 1007.0 in /  34097 hPa NNW 4.7 mph /  7.6 km/h 4.7 mph /  7.6 km/h 77 % 0.0 in /  0 mm
15:47 6.8 °F /  -14 °C 3.1 °F /  -16.1 °C 1007.0 in /  34097 hPa North 3.7 mph /  6 km/h 3.7 mph /  6 km/h 77 % 0.0 in /  0 mm
15:52 6.9 °F /  -13.9 °C 3.2 °F /  -16 °C 1007.0 in /  34097 hPa NE 5.6 mph /  9 km/h 5.6 mph /  9 km/h 77 % 0.0 in /  0 mm
15:57 6.9 °F /  -13.9 °C 3.2 °F /  -16 °C 1007.0 in /  34097 hPa North 1.9 mph /  3.1 km/h 1.9 mph /  3.1 km/h 77 % 0.0 in /  0 mm
16:02 6.8 °F /  -14 °C 3.1 °F /  -16.1 °C 1007.0 in /  34097 hPa NNE 3.9 mph /  6.3 km/h 3.9 mph /  6.3 km/h 77 % 0.0 in /  0 mm
16:07 6.8 °F /  -14 °C 3.1 °F /  -16.1 °C 1007.0 in /  34097 hPa NE 3.7 mph /  6 km/h 3.7 mph /  6 km/h 77 % 0.0 in /  0 mm
16:12 6.7 °F /  -14.1 °C 2.9 °F /  -16.2 °C 1007.0 in /  34097 hPa NE 7.4 mph /  11.9 km/h 7.4 mph /  11.9 km/h 77 % 0.0 in /  0 mm
16:17 6.7 °F /  -14.1 °C 2.9 °F /  -16.2 °C 1006.0 in /  34063.2 hPa North 3.9 mph /  6.3 km/h 3.9 mph /  6.3 km/h 77 % 0.0 in /  0 mm
16:22 6.7 °F /  -14.1 °C 2.9 °F /  -16.2 °C 1006.0 in /  34063.2 hPa NNE 1.9 mph /  3.1 km/h   77 % 0.0 in /  0 mm
16:27 6.7 °F /  -14.1 °C 2.9 °F /  -16.2 °C 1006.0 in /  34063.2 hPa ENE 1.9 mph /  3.1 km/h 1.9 mph /  3.1 km/h 77 % 0.0 in /  0 mm
16:32 6.7 °F /  -14.1 °C 2.9 °F /  -16.2 °C 1006.0 in /  34063.2 hPa WNW 3.7 mph /  6 km/h   77 % 0.0 in /  0 mm
16:37 6.7 °F /  -14.1 °C 2.9 °F /  -16.2 °C 1006.0 in /  34063.2 hPa WNW 1.9 mph /  3.1 km/h 2.6 mph /  4.2 km/h 77 % 0.0 in /  0 mm
16:42 6.7 °F /  -14.1 °C 2.9 °F /  -16.2 °C 1006.0 in /  34063.2 hPa ENE 3.7 mph /  6 km/h 3.7 mph /  6 km/h 77 % 0.0 in /  0 mm
16:47 6.6 °F /  -14.1 °C 2.8 °F /  -16.2 °C 1007.0 in /  34097 hPa NNE 3.7 mph /  6 km/h 3.7 mph /  6 km/h 77 % 0.0 in /  0 mm
16:52 6.6 °F /  -14.1 °C 2.8 °F /  -16.2 °C 1007.0 in /  34097 hPa NW 1.9 mph /  3.1 km/h   77 % 0.0 in /  0 mm
16:57 6.6 °F /  -14.1 °C 2.8 °F /  -16.2 °C 1007.0 in /  34097 hPa NNE 3.7 mph /  6 km/h 3.7 mph /  6 km/h 77 % 0.0 in /  0 mm
17:02 6.6 °F /  -14.1 °C 2.8 °F /  -16.2 °C 1007.0 in /  34097 hPa NNE 3.7 mph /  6 km/h   77 % 0.0 in /  0 mm
17:07 6.6 °F /  -14.1 °C 2.8 °F /  -16.2 °C 1007.0 in /  34097 hPa NNE 1.9 mph /  3.1 km/h   77 % 0.0 in /  0 mm
17:12 6.7 °F /  -14.1 °C 2.9 °F /  -16.2 °C 1007.0 in /  34097 hPa NW 2.3 mph /  3.7 km/h   77 % 0.0 in /  0 mm
17:17 6.8 °F /  -14 °C 3.1 °F /  -16.1 °C 1007.0 in /  34097 hPa NW 2.3 mph /  3.7 km/h 2.3 mph /  3.7 km/h 77 % 0.0 in /  0 mm
17:22 6.7 °F /  -14.1 °C 3.1 °F /  -16.1 °C 1007.0 in /  34097 hPa Calm     78 % 0.0 in /  0 mm
17:27 6.8 °F /  -14 °C 3.2 °F /  -16 °C 1007.0 in /  34097 hPa Calm     78 % 0.0 in /  0 mm
17:32 6.7 °F /  -14.1 °C 3.1 °F /  -16.1 °C 1006.0 in /  34063.2 hPa WNW 1.9 mph /  3.1 km/h   78 % 0.0 in /  0 mm
17:37 6.7 °F /  -14.1 °C 3.1 °F /  -16.1 °C 1006.0 in /  34063.2 hPa Calm     78 % 0.0 in /  0 mm
17:42 6.7 °F /  -14.1 °C 3.1 °F /  -16.1 °C 1006.0 in /  34063.2 hPa Calm     78 % 0.0 in /  0 mm
17:47 6.7 °F /  -14.1 °C 3.1 °F /  -16.1 °C 1006.0 in /  34063.2 hPa WNW 1.9 mph /  3.1 km/h   78 % 0.0 in /  0 mm
17:52 6.7 °F /  -14.1 °C 3.1 °F /  -16.1 °C 1006.0 in /  34063.2 hPa Calm     78 % 0.0 in /  0 mm
17:57 6.7 °F /  -14.1 °C 3.1 °F /  -16.1 °C 1006.0 in /  34063.2 hPa WNW 1.9 mph /  3.1 km/h   78 % 0.0 in /  0 mm
18:02 6.7 °F /  -14.1 °C 3.1 °F /  -16.1 °C 1006.0 in /  34063.2 hPa Calm     78 % 0.0 in /  0 mm
18:07 6.8 °F /  -14 °C 3.2 °F /  -16 °C 1006.0 in /  34063.2 hPa Calm     78 % 0.0 in /  0 mm
18:12 6.7 °F /  -14.1 °C 3.1 °F /  -16.1 °C 1006.0 in /  34063.2 hPa Calm     78 % 0.0 in /  0 mm
18:17 6.7 °F /  -14.1 °C 3.1 °F /  -16.1 °C 1007.0 in /  34097 hPa East 3.9 mph /  6.3 km/h 3.9 mph /  6.3 km/h 78 % 0.0 in /  0 mm
18:19 6.7 °F /  -14.1 °C 3.1 °F /  -16.1 °C 1007.0 in /  34097 hPa ESE 3.7 mph /  6 km/h 3.7 mph /  6 km/h 78 % 0.0 in /  0 mm
18:24 6.7 °F /  -14.1 °C 3.1 °F /  -16.1 °C 1007.0 in /  34097 hPa East 3.7 mph /  6 km/h 3.7 mph /  6 km/h 78 % 0.0 in /  0 mm
18:29 6.7 °F /  -14.1 °C 3.1 °F /  -16.1 °C 1006.0 in /  34063.2 hPa ESE 1.9 mph /  3.1 km/h 1.9 mph /  3.1 km/h 78 % 0.0 in /  0 mm
18:34 6.7 °F /  -14.1 °C 3.1 °F /  -16.1 °C 1006.0 in /  34063.2 hPa Calm     78 % 0.0 in /  0 mm
18:39 6.8 °F /  -14 °C 3.2 °F /  -16 °C 1006.0 in /  34063.2 hPa ENE 3.7 mph /  6 km/h 3.7 mph /  6 km/h 78 % 0.0 in /  0 mm
18:44 6.6 °F /  -14.1 °C 3.1 °F /  -16.1 °C 1007.0 in /  34097 hPa NE 4.2 mph /  6.8 km/h 4.2 mph /  6.8 km/h 78 % 0.0 in /  0 mm
18:49 6.6 °F /  -14.1 °C 3.1 °F /  -16.1 °C 1007.0 in /  34097 hPa ENE 3.9 mph /  6.3 km/h 4.2 mph /  6.8 km/h 78 % 0.0 in /  0 mm
18:54 6.6 °F /  -14.1 °C 3.1 °F /  -16.1 °C 1007.0 in /  34097 hPa ESE 7.4 mph /  11.9 km/h 7.4 mph /  11.9 km/h 78 % 0.0 in /  0 mm
18:59 6.4 °F /  -14.2 °C 2.8 °F /  -16.2 °C 1006.0 in /  34063.2 hPa ESE 9.3 mph /  15 km/h 9.5 mph /  15.3 km/h 78 % 0.0 in /  0 mm
19:04 6.3 °F /  -14.3 °C 2.7 °F /  -16.3 °C 1006.0 in /  34063.2 hPa ENE 9.3 mph /  15 km/h 9.3 mph /  15 km/h 78 % 0.0 in /  0 mm
19:09 6.2 °F /  -14.3 °C 2.7 °F /  -16.3 °C 1006.0 in /  34063.2 hPa ENE 7.4 mph /  11.9 km/h 7.4 mph /  11.9 km/h 78 % 0.0 in /  0 mm
19:14 6.2 °F /  -14.3 °C 2.7 °F /  -16.3 °C 1006.0 in /  34063.2 hPa ESE 5.6 mph /  9 km/h 5.6 mph /  9 km/h 78 % 0.0 in /  0 mm
19:19 6.1 °F /  -14.4 °C 2.7 °F /  -16.3 °C 1006.0 in /  34063.2 hPa ENE 5.6 mph /  9 km/h 5.6 mph /  9 km/h 79 % 0.0 in /  0 mm
19:24 6.1 °F /  -14.4 °C 2.7 °F /  -16.3 °C 1006.0 in /  34063.2 hPa ENE 3.7 mph /  6 km/h 3.7 mph /  6 km/h 79 % 0.0 in /  0 mm
19:29 6.1 °F /  -14.4 °C 2.7 °F /  -16.3 °C 1007.0 in /  34097 hPa ESE 5.6 mph /  9 km/h 5.6 mph /  9 km/h 79 % 0.0 in /  0 mm
19:34 6.1 °F /  -14.4 °C 2.7 °F /  -16.3 °C 1007.0 in /  34097 hPa ESE 7.6 mph /  12.2 km/h 7.6 mph /  12.2 km/h 79 % 0.0 in /  0 mm
19:39 6.0 °F /  -14.4 °C 2.6 °F /  -16.3 °C 1007.0 in /  34097 hPa ESE 11.1 mph /  17.9 km/h 11.1 mph /  17.9 km/h 79 % 0.0 in /  0 mm
19:44 6.0 °F /  -14.4 °C 2.6 °F /  -16.3 °C 1007.0 in /  34097 hPa ESE 7.4 mph /  11.9 km/h 7.4 mph /  11.9 km/h 79 % 0.0 in /  0 mm
19:49 6.0 °F /  -14.4 °C 2.6 °F /  -16.3 °C 1007.0 in /  34097 hPa East 9.3 mph /  15 km/h 9.3 mph /  15 km/h 79 % 0.0 in /  0 mm
19:54 5.9 °F /  -14.5 °C 2.3 °F /  -16.5 °C 1007.0 in /  34097 hPa NNE 16.7 mph /  26.9 km/h 16.7 mph /  26.9 km/h 78 % 0.0 in /  0 mm
19:59 5.8 °F /  -14.6 °C 2.4 °F /  -16.4 °C 1006.0 in /  34063.2 hPa ESE 9.3 mph /  15 km/h 9.3 mph /  15 km/h 79 % 0.0 in /  0 mm
20:04 5.8 °F /  -14.6 °C 2.4 °F /  -16.4 °C 1006.0 in /  34063.2 hPa ESE 7.4 mph /  11.9 km/h 7.4 mph /  11.9 km/h 79 % 0.0 in /  0 mm
20:09 5.7 °F /  -14.6 °C 2.3 °F /  -16.5 °C 1006.0 in /  34063.2 hPa ENE 7.4 mph /  11.9 km/h 7.4 mph /  11.9 km/h 79 % 0.0 in /  0 mm
20:14 5.7 °F /  -14.6 °C 2.3 °F /  -16.5 °C 1007.0 in /  34097 hPa ENE 8.7 mph /  14 km/h 8.7 mph /  14 km/h 79 % 0.0 in /  0 mm
20:19 5.7 °F /  -14.6 °C 2.3 °F /  -16.5 °C 1007.0 in /  34097 hPa NE 9.0 mph /  14.5 km/h 9.0 mph /  14.5 km/h 79 % 0.0 in /  0 mm
20:24 5.7 °F /  -14.6 °C 2.3 °F /  -16.5 °C 1007.0 in /  34097 hPa ENE 7.4 mph /  11.9 km/h 7.4 mph /  11.9 km/h 79 % 0.0 in /  0 mm
20:29 5.7 °F /  -14.6 °C 2.3 °F /  -16.5 °C 1007.0 in /  34097 hPa NE 5.6 mph /  9 km/h 5.6 mph /  9 km/h 79 % 0.0 in /  0 mm
20:34 5.6 °F /  -14.7 °C 2.2 °F /  -16.6 °C 1007.0 in /  34097 hPa NNE 11.1 mph /  17.9 km/h 11.1 mph /  17.9 km/h 79 % 0.0 in /  0 mm
20:39 5.6 °F /  -14.7 °C 2.2 °F /  -16.6 °C 1007.0 in /  34097 hPa NNE 9.3 mph /  15 km/h 9.3 mph /  15 km/h 79 % 0.0 in /  0 mm
20:44 5.5 °F /  -14.7 °C 2.2 °F /  -16.6 °C 1007.0 in /  34097 hPa NNE 9.3 mph /  15 km/h 9.3 mph /  15 km/h 79 % 0.0 in /  0 mm
20:49 5.5 °F /  -14.7 °C 2.2 °F /  -16.6 °C 1007.0 in /  34097 hPa NNE 7.4 mph /  11.9 km/h 7.4 mph /  11.9 km/h 79 % 0.0 in /  0 mm
20:54 5.5 °F /  -14.7 °C 2.2 °F /  -16.6 °C 1007.0 in /  34097 hPa NNE 7.4 mph /  11.9 km/h 7.4 mph /  11.9 km/h 79 % 0.0 in /  0 mm
20:59 5.5 °F /  -14.7 °C 2.2 °F /  -16.6 °C 1007.0 in /  34097 hPa NNE 6.9 mph /  11.1 km/h 6.9 mph /  11.1 km/h 79 % 0.0 in /  0 mm
21:04 5.5 °F /  -14.7 °C 2.2 °F /  -16.6 °C 1007.0 in /  34097 hPa NNW 1.9 mph /  3.1 km/h   79 % 0.0 in /  0 mm
21:09 5.6 °F /  -14.7 °C 2.2 °F /  -16.6 °C 1007.0 in /  34097 hPa ENE 3.7 mph /  6 km/h 3.7 mph /  6 km/h 79 % 0.0 in /  0 mm
21:14 5.6 °F /  -14.7 °C 2.2 °F /  -16.6 °C 1007.0 in /  34097 hPa ENE 11.1 mph /  17.9 km/h 11.1 mph /  17.9 km/h 79 % 0.0 in /  0 mm
21:19 5.6 °F /  -14.7 °C 2.2 °F /  -16.6 °C 1007.0 in /  34097 hPa ENE 9.3 mph /  15 km/h 9.3 mph /  15 km/h 79 % 0.0 in /  0 mm
21:24 5.5 °F /  -14.7 °C 1.9 °F /  -16.7 °C 1007.0 in /  34097 hPa ENE 7.4 mph /  11.9 km/h 7.4 mph /  11.9 km/h 78 % 0.0 in /  0 mm
21:29 5.6 °F /  -14.7 °C 2.1 °F /  -16.6 °C 1007.0 in /  34097 hPa NNE 5.6 mph /  9 km/h 5.6 mph /  9 km/h 78 % 0.0 in /  0 mm
21:34 5.6 °F /  -14.7 °C 2.1 °F /  -16.6 °C 1007.0 in /  34097 hPa East 5.6 mph /  9 km/h 5.6 mph /  9 km/h 78 % 0.0 in /  0 mm
21:39 5.6 °F /  -14.7 °C 2.1 °F /  -16.6 °C 1007.0 in /  34097 hPa East 5.0 mph /  8 km/h 5.0 mph /  8 km/h 78 % 0.0 in /  0 mm
21:44 5.5 °F /  -14.7 °C 1.9 °F /  -16.7 °C 1007.0 in /  34097 hPa ENE 7.4 mph /  11.9 km/h 7.4 mph /  11.9 km/h 78 % 0.0 in /  0 mm
21:49 5.5 °F /  -14.7 °C 1.9 °F /  -16.7 °C 1007.0 in /  34097 hPa NNE 7.4 mph /  11.9 km/h 7.4 mph /  11.9 km/h 78 % 0.0 in /  0 mm
21:54 5.5 °F /  -14.7 °C 1.9 °F /  -16.7 °C 1007.0 in /  34097 hPa ENE 11.1 mph /  17.9 km/h 11.1 mph /  17.9 km/h 78 % 0.0 in /  0 mm
21:59 5.5 °F /  -14.7 °C 1.9 °F /  -16.7 °C 1007.0 in /  34097 hPa ENE 9.3 mph /  15 km/h 9.3 mph /  15 km/h 78 % 0.0 in /  0 mm
22:04 5.5 °F /  -14.7 °C 1.9 °F /  -16.7 °C 1007.0 in /  34097 hPa ENE 3.7 mph /  6 km/h 3.7 mph /  6 km/h 78 % 0.0 in /  0 mm
22:09 5.5 °F /  -14.7 °C 1.9 °F /  -16.7 °C 1007.0 in /  34097 hPa NNE 3.7 mph /  6 km/h 3.7 mph /  6 km/h 78 % 0.0 in /  0 mm
22:14 5.5 °F /  -14.7 °C 1.9 °F /  -16.7 °C 1007.0 in /  34097 hPa NNE 7.4 mph /  11.9 km/h 7.4 mph /  11.9 km/h 78 % 0.0 in /  0 mm
22:19 5.5 °F /  -14.7 °C 1.9 °F /  -16.7 °C 1007.0 in /  34097 hPa NNE 5.6 mph /  9 km/h 5.6 mph /  9 km/h 78 % 0.0 in /  0 mm
22:24 5.5 °F /  -14.7 °C 1.9 °F /  -16.7 °C 1007.0 in /  34097 hPa NNE 5.6 mph /  9 km/h 5.6 mph /  9 km/h 78 % 0.0 in /  0 mm
22:29 5.4 °F /  -14.8 °C 1.9 °F /  -16.7 °C 1007.0 in /  34097 hPa East 7.4 mph /  11.9 km/h 7.4 mph /  11.9 km/h 78 % 0.0 in /  0 mm
22:34 5.4 °F /  -14.8 °C 1.9 °F /  -16.7 °C 1007.0 in /  34097 hPa NNE 5.6 mph /  9 km/h 5.6 mph /  9 km/h 78 % 0.0 in /  0 mm
22:39 5.5 °F /  -14.7 °C 1.9 °F /  -16.7 °C 1007.0 in /  34097 hPa NNE 5.6 mph /  9 km/h 5.6 mph /  9 km/h 78 % 0.0 in /  0 mm
22:44 5.5 °F /  -14.7 °C 1.9 °F /  -16.7 °C 1007.0 in /  34097 hPa NNE 5.6 mph /  9 km/h 5.6 mph /  9 km/h 78 % 0.0 in /  0 mm
22:49 5.5 °F /  -14.7 °C 1.9 °F /  -16.7 °C 1007.0 in /  34097 hPa NNE 7.4 mph /  11.9 km/h 7.4 mph /  11.9 km/h 78 % 0.0 in /  0 mm
22:54 5.5 °F /  -14.7 °C 1.9 °F /  -16.7 °C 1007.0 in /  34097 hPa ENE 5.6 mph /  9 km/h 5.6 mph /  9 km/h 78 % 0.0 in /  0 mm
22:59 5.5 °F /  -14.7 °C 1.9 °F /  -16.7 °C 1008.0 in /  34130.9 hPa NNE 3.7 mph /  6 km/h 3.7 mph /  6 km/h 78 % 0.0 in /  0 mm
23:04 5.5 °F /  -14.7 °C 1.9 °F /  -16.7 °C 1008.0 in /  34130.9 hPa NNE 2.3 mph /  3.7 km/h 2.3 mph /  3.7 km/h 78 % 0.0 in /  0 mm
23:09 5.5 °F /  -14.7 °C 1.9 °F /  -16.7 °C 1008.0 in /  34130.9 hPa NNE 3.7 mph /  6 km/h 3.7 mph /  6 km/h 78 % 0.0 in /  0 mm
23:14 5.5 °F /  -14.7 °C 1.9 °F /  -16.7 °C 1007.0 in /  34097 hPa NNE 3.7 mph /  6 km/h 3.7 mph /  6 km/h 78 % 0.0 in /  0 mm
23:19 5.5 °F /  -14.7 °C 1.9 °F /  -16.7 °C 1007.0 in /  34097 hPa NNE 3.7 mph /  6 km/h 3.7 mph /  6 km/h 78 % 0.0 in /  0 mm
23:24 5.5 °F /  -14.7 °C 1.8 °F /  -16.8 °C 1007.0 in /  34097 hPa NNE 2.3 mph /  3.7 km/h 2.6 mph /  4.2 km/h 77 % 0.0 in /  0 mm
23:29 5.5 °F /  -14.7 °C 1.9 °F /  -16.7 °C 1008.0 in /  34130.9 hPa NNE 5.6 mph /  9 km/h 5.6 mph /  9 km/h 78 % 0.0 in /  0 mm
23:34 5.5 °F /  -14.7 °C 1.9 °F /  -16.7 °C 1008.0 in /  34130.9 hPa ENE 1.9 mph /  3.1 km/h 1.9 mph /  3.1 km/h 78 % 0.0 in /  0 mm
23:39 5.5 °F /  -14.7 °C 1.9 °F /  -16.7 °C 1008.0 in /  34130.9 hPa ENE 3.7 mph /  6 km/h 3.7 mph /  6 km/h 78 % 0.0 in /  0 mm
23:44 5.3 °F /  -14.8 °C 1.8 °F /  -16.8 °C 1008.0 in /  34130.9 hPa ENE 4.2 mph /  6.8 km/h 4.2 mph /  6.8 km/h 78 % 0.0 in /  0 mm
23:49 5.2 °F /  -14.9 °C 1.7 °F /  -16.8 °C 1008.0 in /  34130.9 hPa ENE 1.9 mph /  3.1 km/h 1.9 mph /  3.1 km/h 78 % 0.0 in /  0 mm
23:54 5.2 °F /  -14.9 °C 1.7 °F /  -16.8 °C 1008.0 in /  34130.9 hPa Calm     78 % 0.0 in /  0 mm
23:59 5.1 °F /  -14.9 °C 1.6 °F /  -16.9 °C 1008.0 in /  34130.9 hPa ENE 3.7 mph /  6 km/h 3.7 mph /  6 km/h 78 % 1.3 in /  33.02 mm
Meteo Sesrovires
Elogis d' Weather Underground - 2.25 mb

Guio original per  Jim McMurry - jmcmurry@mwt.net Adaptat per a la plantilla per  Wim van der Kuil - Leuven-Template.eu

Trobareu la nostra informacio del temps tambe a:

Weather Underground

AWEKAS